Time;durP1;ratioP1;P1;durP2;ratioP2;P2;SDS_P1;SDS_P2;PMS_P1;PMS_P2;Temp;Humidity;BMP_temperature;BMP_pressure;BME280_temperature;BME280_humidity;BME280_pressure;Samples;Min_cycle;Max_cycle;Signal;HPM_P1;HPM_P2
2023/01/18 00:01:22;;;;;;;5.65;5.25;;;3.40;99.90;;;;;;5115590;28;20211;-82
2023/01/18 00:03:51;;;;;;;6.78;6.18;;;3.40;99.90;;;;;;5115551;28;20228;-82
2023/01/18 00:06:20;;;;;;;6.90;6.28;;;3.40;99.90;;;;;;5115742;28;20258;-83
2023/01/18 00:08:48;;;;;;;5.93;5.30;;;3.40;99.90;;;;;;5115218;28;20228;-82
2023/01/18 00:11:17;;;;;;;6.28;5.78;;;3.50;99.90;;;;;;5115457;28;20208;-81
2023/01/18 00:13:48;;;;;;;5.13;4.72;;;3.50;99.90;;;;;;5115140;28;20227;-81
2023/01/18 00:16:17;;;;;;;5.63;5.22;;;3.50;99.90;;;;;;5115132;28;20207;-82
2023/01/18 00:18:51;;;;;;;5.93;5.43;;;3.50;99.90;;;;;;5115416;28;20199;-82
2023/01/18 00:21:19;;;;;;;5.60;5.10;;;3.50;99.90;;;;;;5115359;28;20212;-82
2023/01/18 00:23:47;;;;;;;5.00;4.60;;;3.50;99.90;;;;;;5115845;28;20228;-82
2023/01/18 00:26:16;;;;;;;4.88;4.50;;;3.60;99.90;;;;;;5115363;28;20207;-82
2023/01/18 00:28:44;;;;;;;4.85;4.43;;;3.50;99.90;;;;;;5114768;28;20220;-82
2023/01/18 00:31:15;;;;;;;4.32;4.03;;;3.60;99.90;;;;;;5114305;28;20212;-82
2023/01/18 00:33:44;;;;;;;5.07;4.68;;;3.50;99.90;;;;;;5114889;28;20230;-83
2023/01/18 00:36:13;;;;;;;4.38;4.07;;;3.50;99.90;;;;;;5114837;28;20199;-83
2023/01/18 00:38:42;;;;;;;4.70;4.32;;;3.50;99.90;;;;;;5114976;28;20206;-83
2023/01/18 00:41:10;;;;;;;5.65;5.15;;;3.50;99.90;;;;;;5114850;28;20214;-83
2023/01/18 00:43:40;;;;;;;6.60;5.13;;;3.50;99.90;;;;;;5114458;28;20228;-83
2023/01/18 00:46:09;;;;;;;4.97;4.60;;;3.50;99.90;;;;;;5114900;28;20215;-82
2023/01/18 00:48:41;;;;;;;7.82;5.03;;;3.50;99.90;;;;;;5114393;28;20250;-83
2023/01/18 00:51:12;;;;;;;5.88;5.30;;;3.50;99.90;;;;;;5114946;28;20212;-83
2023/01/18 00:53:42;;;;;;;5.68;5.15;;;3.50;99.90;;;;;;5114213;28;20220;-83
2023/01/18 00:56:13;;;;;;;5.20;4.78;;;3.50;99.90;;;;;;5114482;28;20207;-84
2023/01/18 00:58:41;;;;;;;5.32;4.93;;;3.50;99.90;;;;;;5114180;28;20252;-83
2023/01/18 01:01:19;;;;;;;5.28;4.88;;;3.50;99.90;;;;;;5114293;28;20233;-82
2023/01/18 01:06:44;;;;;;;5.45;5.05;;;3.40;99.90;;;;;;5114242;28;20217;-83
2023/01/18 01:09:16;;;;;;;4.90;4.50;;;3.50;99.90;;;;;;5114543;28;20219;-83
2023/01/18 01:26:03;;;;;;;7.88;5.05;;;3.40;99.90;;;;;;5114035;28;20210;-82
2023/01/18 01:28:32;;;;;;;4.85;4.43;;;3.40;99.90;;;;;;5113508;28;20227;-82
2023/01/18 01:31:01;;;;;;;5.88;5.30;;;3.40;99.90;;;;;;5114248;28;20215;-82
2023/01/18 01:33:31;;;;;;;5.57;5.10;;;3.40;99.90;;;;;;5113699;28;20249;-82
2023/01/18 01:36:06;;;;;;;4.80;4.43;;;3.40;99.90;;;;;;5113826;28;20204;-83
2023/01/18 01:38:36;;;;;;;5.05;4.65;;;3.40;99.90;;;;;;5113784;28;20200;-83
2023/01/18 01:41:06;;;;;;;9.13;5.43;;;3.40;99.90;;;;;;5113888;28;20204;-83
2023/01/18 01:43:39;;;;;;;5.60;5.05;;;3.30;99.90;;;;;;5113539;28;20224;-82
2023/01/18 01:46:21;;;;;;;5.20;4.70;;;3.30;99.90;;;;;;5113868;28;20211;-82
2023/01/18 01:48:51;;;;;;;5.20;4.75;;;3.30;99.90;;;;;;5113254;28;20230;-83
2023/01/18 01:51:20;;;;;;;5.20;4.70;;;3.30;99.90;;;;;;5113778;28;20218;-82
2023/01/18 01:53:49;;;;;;;5.15;4.75;;;3.30;99.90;;;;;;5113390;28;20219;-83
2023/01/18 01:56:18;;;;;;;5.22;4.80;;;3.30;99.90;;;;;;5113449;28;20200;-82
2023/01/18 01:58:50;;;;;;;5.75;5.25;;;3.30;99.90;;;;;;5113922;28;20215;-83
2023/01/18 02:01:18;;;;;;;6.30;5.70;;;3.30;99.90;;;;;;5113185;28;20212;-83
2023/01/18 02:03:47;;;;;;;6.20;5.70;;;3.30;99.90;;;;;;5113364;28;20238;-82
2023/01/18 02:06:30;;;;;;;6.97;6.28;;;3.30;99.90;;;;;;5113157;28;20203;-82
2023/01/18 02:09:02;;;;;;;6.10;5.60;;;3.30;99.90;;;;;;5113170;28;20235;-82
2023/01/18 02:11:32;;;;;;;7.07;6.38;;;3.30;99.90;;;;;;5113350;28;20207;-83
2023/01/18 02:14:06;;;;;;;6.07;5.55;;;3.30;99.90;;;;;;5113432;28;20219;-83
2023/01/18 02:16:51;;;;;;;5.03;4.63;;;3.30;99.90;;;;;;5113566;28;20207;-83
2023/01/18 02:19:47;;;;;;;4.85;4.47;;;3.30;99.90;;;;;;5113276;28;20211;-82
2023/01/18 02:22:33;;;;;;;5.70;5.20;;;3.30;99.90;;;;;;5112718;28;20230;-82
2023/01/18 02:25:31;;;;;;;6.32;5.70;;;3.40;99.90;;;;;;5113558;28;20212;-82
2023/01/18 02:28:15;;;;;;;6.15;5.57;;;3.40;99.90;;;;;;5112836;28;20199;-82
2023/01/18 02:30:49;;;;;;;5.45;4.97;;;3.40;99.90;;;;;;5112822;28;20208;-82
2023/01/18 02:33:25;;;;;;;4.57;4.20;;;3.40;99.90;;;;;;5113268;28;20223;-82
2023/01/18 02:35:56;;;;;;;5.32;4.85;;;3.40;99.90;;;;;;5113315;28;20217;-83
2023/01/18 02:38:28;;;;;;;5.25;4.85;;;3.40;99.90;;;;;;5113011;28;20203;-82
2023/01/18 02:41:07;;;;;;;6.32;5.68;;;3.40;99.90;;;;;;5112967;28;20285;-82
2023/01/18 02:46:34;;;;;;;5.15;4.65;;;3.40;99.90;;;;;;5112791;28;20200;-82
2023/01/18 02:49:06;;;;;;;5.63;5.13;;;3.40;99.90;;;;;;5112469;28;20219;-82
2023/01/18 02:51:35;;;;;;;7.68;5.60;;;3.40;99.90;;;;;;5112561;28;20269;-82
2023/01/18 02:54:05;;;;;;;5.55;5.03;;;3.40;99.90;;;;;;5115203;28;20418;-82
2023/01/18 02:56:38;;;;;;;4.65;4.35;;;3.40;99.90;;;;;;5116867;28;20207;-82
2023/01/18 02:59:12;;;;;;;5.90;5.40;;;3.40;99.90;;;;;;5116623;28;20215;-82
2023/01/18 03:01:44;;;;;;;5.47;4.97;;;3.40;99.90;;;;;;5117254;28;20211;-82
2023/01/18 03:04:18;;;;;;;5.40;4.90;;;3.40;99.90;;;;;;5117194;28;20257;-82
2023/01/18 03:06:52;;;;;;;5.28;4.88;;;3.40;99.90;;;;;;5116566;28;20226;-82
2023/01/18 03:09:25;;;;;;;5.95;5.40;;;3.40;99.90;;;;;;5116385;28;20225;-82
2023/01/18 03:12:01;;;;;;;4.97;4.57;;;3.50;99.90;;;;;;5116780;28;20210;-82
2023/01/18 03:14:42;;;;;;;5.47;4.97;;;3.50;99.90;;;;;;5116891;28;20209;-82
2023/01/18 03:17:17;;;;;;;5.95;5.45;;;3.50;99.90;;;;;;5116576;28;20212;-82
2023/01/18 03:20:03;;;;;;;10.13;5.75;;;3.50;99.90;;;;;;5116397;28;20207;-81
2023/01/18 03:25:33;;;;;;;5.88;5.25;;;3.50;99.90;;;;;;5091769;28;20203;-82
2023/01/18 03:33:46;;;;;;;9.10;7.63;;;3.50;99.90;;;;;;5116420;28;20255;-82
2023/01/18 03:36:22;;;;;;;6.82;6.18;;;3.50;99.90;;;;;;5116021;28;20210;-81
2023/01/18 03:38:54;;;;;;;7.55;6.93;;;3.50;99.90;;;;;;5116435;28;20206;-82
2023/01/18 03:41:28;;;;;;;7.30;6.65;;;3.50;99.90;;;;;;5115697;28;20195;-83
2023/01/18 03:44:02;;;;;;;6.43;5.82;;;3.50;99.90;;;;;;5115859;28;20241;-82
2023/01/18 03:46:33;;;;;;;6.32;5.80;;;3.50;99.90;;;;;;5116080;28;20235;-81
2023/01/18 03:49:02;;;;;;;7.30;6.65;;;3.60;99.90;;;;;;5115490;28;20286;-82
2023/01/18 03:51:46;;;;;;;6.43;5.93;;;3.50;99.90;;;;;;5115935;28;20231;-81
2023/01/18 03:54:20;;;;;;;6.82;6.22;;;3.50;99.90;;;;;;5115771;28;20203;-81
2023/01/18 03:56:52;;;;;;;7.40;6.70;;;3.50;99.90;;;;;;5115288;28;20213;-82
2023/01/18 03:59:22;;;;;;;6.28;5.78;;;3.50;99.90;;;;;;5115120;28;20252;-82
2023/01/18 04:01:52;;;;;;;7.03;6.43;;;3.50;99.90;;;;;;5115687;28;20219;-82
2023/01/18 04:04:23;;;;;;;7.15;6.22;;;3.50;99.90;;;;;;5115141;28;20255;-82
2023/01/18 04:06:54;;;;;;;8.05;7.35;;;3.50;99.90;;;;;;5114756;28;20200;-82
2023/01/18 04:09:22;;;;;;;9.13;7.82;;;3.50;99.90;;;;;;5115357;28;20224;-83
2023/01/18 04:11:50;;;;;;;8.40;7.50;;;3.50;99.90;;;;;;5115321;28;20200;-82
2023/01/18 04:14:19;;;;;;;8.77;7.88;;;3.50;99.90;;;;;;5115484;28;20299;-82
2023/01/18 04:16:47;;;;;;;8.05;7.32;;;3.50;99.90;;;;;;5115345;28;20207;-82
2023/01/18 04:19:17;;;;;;;8.48;7.78;;;3.50;99.90;;;;;;5115400;28;20295;-81
2023/01/18 04:21:45;;;;;;;9.15;8.02;;;3.50;99.90;;;;;;5114978;28;20200;-82
2023/01/18 04:24:15;;;;;;;7.07;6.47;;;3.50;99.90;;;;;;5115219;28;20224;-83
2023/01/18 04:26:43;;;;;;;7.72;7.00;;;3.50;99.90;;;;;;5115317;28;20203;-82
2023/01/18 04:29:11;;;;;;;8.90;8.10;;;3.50;99.90;;;;;;5115388;28;20242;-82
2023/01/18 04:31:39;;;;;;;8.32;7.57;;;3.40;99.90;;;;;;5115470;28;20208;-81
2023/01/18 04:34:08;;;;;;;8.50;7.65;;;3.50;99.90;;;;;;5114886;28;20239;-81
2023/01/18 04:36:37;;;;;;;7.05;6.45;;;3.50;99.90;;;;;;5114959;28;20206;-82
2023/01/18 04:39:06;;;;;;;8.38;7.43;;;3.40;99.90;;;;;;5114907;28;20199;-83
2023/01/18 04:41:34;;;;;;;9.05;7.22;;;3.50;99.90;;;;;;5114673;28;20206;-82
2023/01/18 04:44:02;;;;;;;7.70;7.07;;;3.50;99.90;;;;;;5115235;28;20231;-82
2023/01/18 04:46:30;;;;;;;7.75;6.95;;;3.50;99.90;;;;;;5114745;28;20302;-82
2023/01/18 04:48:58;;;;;;;7.47;6.82;;;3.50;99.90;;;;;;5114167;28;20256;-83
2023/01/18 04:51:27;;;;;;;7.72;7.00;;;3.50;99.90;;;;;;5114621;28;20228;-82
2023/01/18 04:54:04;;;;;;;6.90;6.30;;;3.50;99.90;;;;;;5114198;28;20230;-81
2023/01/18 04:56:32;;;;;;;6.40;5.88;;;3.50;99.90;;;;;;5114772;28;20203;-81
2023/01/18 04:59:01;;;;;;;7.00;6.30;;;3.50;99.90;;;;;;5114528;28;20200;-82
2023/01/18 05:01:29;;;;;;;8.25;7.45;;;3.50;99.90;;;;;;5114489;28;20226;-83
2023/01/18 05:03:57;;;;;;;6.93;6.43;;;3.50;99.90;;;;;;5114668;28;20280;-81
2023/01/18 05:06:26;;;;;;;7.65;6.95;;;3.60;99.90;;;;;;5114274;28;20282;-82
2023/01/18 05:08:54;;;;;;;7.47;6.78;;;3.50;99.90;;;;;;5114297;28;20260;-82
2023/01/18 05:11:25;;;;;;;9.02;8.13;;;3.50;99.90;;;;;;5114011;28;20230;-83
2023/01/18 05:13:57;;;;;;;7.57;6.97;;;3.50;99.90;;;;;;5114406;28;20234;-82
2023/01/18 05:16:26;;;;;;;9.25;8.35;;;3.50;99.90;;;;;;5114101;28;20200;-83
2023/01/18 05:18:54;;;;;;;9.05;8.18;;;3.50;99.90;;;;;;5113918;28;20204;-82
2023/01/18 05:21:22;;;;;;;8.95;8.05;;;3.50;99.90;;;;;;5113897;28;20268;-82
2023/01/18 05:23:51;;;;;;;8.80;7.97;;;3.50;99.90;;;;;;5113927;28;20234;-82
2023/01/18 05:26:21;;;;;;;9.18;8.32;;;3.50;99.90;;;;;;5114049;28;20219;-81
2023/01/18 05:28:56;;;;;;;8.77;7.90;;;3.50;99.90;;;;;;5114054;28;20211;-83
2023/01/18 05:31:24;;;;;;;9.38;7.88;;;3.50;99.90;;;;;;5113929;28;20223;-82
2023/01/18 05:33:52;;;;;;;8.85;8.05;;;3.50;99.90;;;;;;5113635;28;20219;-81
2023/01/18 05:36:21;;;;;;;10.88;9.27;;;3.50;99.90;;;;;;5113727;28;20295;-82
2023/01/18 05:38:49;;;;;;;8.75;7.95;;;3.60;99.90;;;;;;5113711;28;20203;-82
2023/01/18 05:41:19;;;;;;;11.93;8.82;;;3.60;99.90;;;;;;5113855;28;20287;-81
2023/01/18 05:43:55;;;;;;;11.20;9.40;;;3.50;99.90;;;;;;5113832;28;20310;-82
2023/01/18 05:46:23;;;;;;;9.82;8.90;;;3.50;99.90;;;;;;5113820;28;20199;-83
2023/01/18 05:48:55;;;;;;;9.57;8.63;;;3.50;99.90;;;;;;5113188;28;20207;-81
2023/01/18 05:51:24;;;;;;;10.50;9.50;;;3.60;99.90;;;;;;5113663;28;20223;-82
2023/01/18 05:53:52;;;;;;;10.82;9.75;;;3.60;99.90;;;;;;5113089;28;20220;-82
2023/01/18 05:56:20;;;;;;;13.20;11.80;;;3.50;99.90;;;;;;5113575;28;20203;-82
2023/01/18 05:58:49;;;;;;;13.88;12.48;;;3.50;99.90;;;;;;5113137;28;20212;-82
2023/01/18 06:01:18;;;;;;;13.88;12.45;;;3.50;99.90;;;;;;5113589;28;20210;-81
2023/01/18 06:03:47;;;;;;;14.02;12.55;;;3.50;99.90;;;;;;5113381;28;20227;-82
2023/01/18 06:06:15;;;;;;;14.68;11.82;;;3.40;99.90;;;;;;5113474;28;20208;-80
2023/01/18 06:08:44;;;;;;;12.93;11.70;;;3.40;99.90;;;;;;5112761;28;20200;-81
2023/01/18 06:11:13;;;;;;;11.70;10.63;;;3.40;99.90;;;;;;5113384;28;20226;-82
2023/01/18 06:13:41;;;;;;;13.77;12.40;;;3.30;99.90;;;;;;5113252;28;20224;-82
2023/01/18 06:16:10;;;;;;;14.63;13.15;;;3.30;99.90;;;;;;5113410;28;20211;-82
2023/01/18 06:18:44;;;;;;;21.05;14.98;;;3.30;99.90;;;;;;5113027;28;20203;-81
2023/01/18 06:21:12;;;;;;;14.30;12.80;;;3.30;99.90;;;;;;5113190;28;20202;-82
2023/01/18 06:23:41;;;;;;;13.10;11.93;;;3.30;99.90;;;;;;5112914;28;20227;-82
2023/01/18 06:26:09;;;;;;;16.40;13.90;;;3.40;99.90;;;;;;5112898;28;20218;-82
2023/01/18 06:28:37;;;;;;;14.75;13.35;;;3.40;99.90;;;;;;5112604;28;20207;-84
2023/01/18 06:31:07;;;;;;;17.80;14.90;;;3.30;99.90;;;;;;5103806;28;20291;-86
2023/01/18 06:33:35;;;;;;;15.20;13.68;;;3.30;99.90;;;;;;5111389;28;20241;-84
2023/01/18 06:36:05;;;;;;;16.48;13.93;;;3.30;99.90;;;;;;5113181;28;20203;-84
2023/01/18 06:38:34;;;;;;;14.65;13.20;;;3.30;99.90;;;;;;5112448;28;20203;-83
2023/01/18 06:41:02;;;;;;;16.10;13.52;;;3.30;99.90;;;;;;5112773;28;20238;-84
2023/01/18 06:43:30;;;;;;;20.00;14.50;;;3.30;99.90;;;;;;5112980;28;20226;-83
2023/01/18 06:45:59;;;;;;;17.20;13.93;;;3.30;99.90;;;;;;5112576;28;20256;-83
2023/01/18 06:48:28;;;;;;;16.67;13.75;;;3.30;99.90;;;;;;5113640;28;20222;-83
2023/01/18 06:50:57;;;;;;;14.63;13.15;;;3.30;99.90;;;;;;5111164;28;20254;-83
2023/01/18 06:53:27;;;;;;;17.00;15.05;;;3.30;99.90;;;;;;5093132;28;20248;-83
2023/01/18 06:55:57;;;;;;;17.13;15.00;;;3.30;99.90;;;;;;5093361;28;20204;-82
2023/01/18 06:58:26;;;;;;;18.65;15.05;;;3.30;99.90;;;;;;5093503;28;20205;-83
2023/01/18 07:01:11;;;;;;;16.27;14.43;;;3.20;99.90;;;;;;5093260;28;20197;-82
2023/01/18 07:03:39;;;;;;;15.85;14.20;;;3.10;99.90;;;;;;5100446;28;20334;-83
2023/01/18 07:06:08;;;;;;;18.70;14.68;;;3.20;99.90;;;;;;5113531;28;20200;-82
2023/01/18 07:08:39;;;;;;;17.08;15.27;;;3.20;99.90;;;;;;5113882;28;20204;-83
2023/01/18 07:11:08;;;;;;;17.63;14.70;;;3.10;99.90;;;;;;5113611;28;20220;-83
2023/01/18 07:13:39;;;;;;;15.73;14.05;;;3.20;99.90;;;;;;5112922;28;20276;-83
2023/01/18 07:16:16;;;;;;;17.42;14.88;;;3.20;99.90;;;;;;5113168;28;20291;-82
2023/01/18 07:18:49;;;;;;;17.15;15.00;;;3.20;99.90;;;;;;5113108;28;20208;-83
2023/01/18 07:21:28;;;;;;;19.70;14.43;;;3.20;99.90;;;;;;5113310;28;20282;-83
2023/01/18 07:28:03;;;;;;;15.18;13.70;;;3.20;99.90;;;;;;5100334;28;20178;-83
2023/01/18 07:30:31;;;;;;;16.13;14.13;;;3.20;99.90;;;;;;5113525;28;20206;-83
2023/01/18 07:33:00;;;;;;;15.13;13.15;;;3.20;99.90;;;;;;5113167;28;20247;-83
2023/01/18 07:35:28;;;;;;;14.80;13.25;;;3.20;99.90;;;;;;5113000;28;20215;-86
2023/01/18 07:37:57;;;;;;;18.55;15.13;;;3.30;99.90;;;;;;5112891;28;20214;-82
2023/01/18 07:40:25;;;;;;;18.25;14.82;;;3.30;99.90;;;;;;5099459;28;20196;-82
2023/01/18 07:43:01;;;;;;;14.63;13.18;;;3.30;99.90;;;;;;5095639;28;20259;-84
2023/01/18 07:45:32;;;;;;;16.80;14.77;;;3.40;99.90;;;;;;5096127;28;20219;-83
2023/01/18 07:48:00;;;;;;;21.42;17.05;;;3.40;99.90;;;;;;5097377;28;20210;-83
2023/01/18 07:50:28;;;;;;;17.15;15.45;;;3.40;99.90;;;;;;5096000;28;20211;-83
2023/01/18 07:53:08;;;;;;;17.23;15.57;;;3.40;99.90;;;;;;5110468;22;20228;-83
2023/01/18 07:55:39;;;;;;;19.08;16.98;;;3.50;99.90;;;;;;5115735;28;20208;-83
2023/01/18 07:58:26;;;;;;;18.35;15.93;;;3.40;99.90;;;;;;5111704;28;20211;-83
2023/01/18 08:01:28;;;;;;;17.40;15.63;;;3.50;99.90;;;;;;5096707;28;20193;-86
2023/01/18 08:03:58;;;;;;;16.55;14.90;;;3.50;99.90;;;;;;5078174;28;20289;-86
2023/01/18 08:10:36;;;;;;;19.50;16.65;;;3.60;99.90;;;;;;5095624;28;20195;-85
2023/01/18 08:13:27;;;;;;;20.38;17.92;;;3.60;99.90;;;;;;5067229;28;20278;-86
2023/01/18 08:19:24;;;;;;;19.70;15.85;;;3.60;99.90;;;;;;5062075;28;20205;-85
2023/01/18 08:26:05;;;;;;;19.67;16.85;;;3.60;99.90;;;;;;5075713;28;20212;-86
2023/01/18 08:34:29;;;;;;;17.52;14.77;;;3.70;99.90;;;;;;5082150;28;20196;-85
2023/01/18 08:37:04;;;;;;;14.50;13.10;;;3.70;99.90;;;;;;5092924;28;20204;-86
2023/01/18 08:43:39;;;;;;;15.15;13.65;;;3.80;99.90;;;;;;5106382;22;20242;-85
2023/01/18 08:46:07;;;;;;;16.55;14.15;;;3.80;99.90;;;;;;5113790;28;20286;-86
2023/01/18 08:49:19;;;;;;;19.27;13.88;;;3.80;99.90;;;;;;5051658;28;20202;-86
2023/01/18 08:51:50;;;;;;;14.13;12.73;;;3.90;99.90;;;;;;5015118;28;20316;-85
2023/01/18 08:54:19;;;;;;;16.75;13.65;;;4.00;99.90;;;;;;5012087;28;20241;-87
2023/01/18 08:56:47;;;;;;;11.77;10.23;;;4.10;99.90;;;;;;5011893;28;20205;-86
2023/01/18 08:59:15;;;;;;;10.82;9.73;;;4.20;99.90;;;;;;5011790;28;20222;-85
2023/01/18 09:02:02;;;;;;;12.43;8.75;;;4.20;99.90;;;;;;5011985;28;20211;-86
2023/01/18 09:04:31;;;;;;;8.35;7.55;;;4.30;99.90;;;;;;5009803;28;20213;-85
2023/01/18 09:07:01;;;;;;;6.47;5.82;;;4.40;99.90;;;;;;5011430;28;20295;-85
2023/01/18 09:21:38;;;;;;;;;;;;;;;;;;;;;
2023/01/18 09:57:03;;;;;;;3.35;3.08;;;5.90;99.90;;;;;;5009800;28;20206;-86
2023/01/18 09:59:39;;;;;;;2.15;2.05;;;6.00;99.90;;;;;;5002190;28;20206;-86
2023/01/18 10:06:19;;;;;;;2.40;2.20;;;6.30;99.90;;;;;;5010934;28;20197;-86
2023/01/18 10:09:03;;;;;;;2.20;2.00;;;6.50;99.90;;;;;;5010489;28;20313;-86
2023/01/18 10:49:53;;;;;;;1.88;1.77;;;6.50;99.90;;;;;;5088843;28;20208;-85
2023/01/18 10:52:27;;;;;;;2.05;1.85;;;6.50;99.90;;;;;;5091656;28;20224;-85
2023/01/18 10:55:00;;;;;;;1.88;1.42;;;6.50;99.90;;;;;;5092097;28;20227;-85
2023/01/18 10:57:46;;;;;;;1.55;1.45;;;6.50;99.90;;;;;;5092023;28;20227;-85
2023/01/18 11:00:22;;;;;;;3.13;1.63;;;6.40;99.90;;;;;;5091732;28;20212;-85
2023/01/18 11:02:54;;;;;;;1.58;1.48;;;6.40;99.90;;;;;;5091290;28;20227;-85
2023/01/18 11:05:29;;;;;;;1.58;1.48;;;6.40;99.90;;;;;;5092111;28;20208;-85
2023/01/18 11:08:21;;;;;;;1.40;1.30;;;6.40;99.90;;;;;;5091586;28;20206;-85
2023/01/18 11:10:59;;;;;;;1.58;1.48;;;6.40;99.90;;;;;;5092160;28;20208;-86
2023/01/18 11:13:41;;;;;;;1.45;1.35;;;6.50;99.90;;;;;;5086941;28;20225;-85
2023/01/18 11:16:34;;;;;;;1.25;1.15;;;6.40;99.90;;;;;;5093953;28;20280;-86
2023/01/18 11:19:04;;;;;;;1.70;1.33;;;6.50;99.90;;;;;;5095294;28;20226;-85
2023/01/18 11:21:45;;;;;;;1.63;1.52;;;6.50;99.90;;;;;;5095454;28;20205;-86
2023/01/18 11:24:17;;;;;;;2.22;1.88;;;6.50;99.90;;;;;;5095992;28;20207;-85
2023/01/18 11:27:04;;;;;;;2.05;1.52;;;6.50;99.90;;;;;;5095395;28;20238;-85
2023/01/18 11:29:38;;;;;;;1.58;1.48;;;6.60;99.90;;;;;;5086357;28;20197;-85
2023/01/18 11:32:20;;;;;;;2.55;1.25;;;6.70;99.90;;;;;;5087094;28;20199;-85
2023/01/18 11:39:27;;;;;;;3.00;1.88;;;7.10;99.90;;;;;;5025926;28;20276;-85
2023/01/18 11:54:31;;;;;;;3.55;1.00;;;8.20;99.90;;;;;;4782739;29;20242;-85
2023/01/18 12:13:58;;;;;;;0.68;0.68;;;8.20;99.90;;;;;;4946548;29;20339;-82
2023/01/18 12:16:49;;;;;;;0.50;0.50;;;8.30;99.90;;;;;;5050120;28;20220;-84
2023/01/18 12:20:01;;;;;;;0.90;0.90;;;8.50;99.90;;;;;;5054967;28;20300;-81
2023/01/18 12:26:53;;;;;;;9.05;1.00;;;8.50;99.90;;;;;;5010541;28;20207;-82
2023/01/18 12:30:06;;;;;;;1.27;1.20;;;8.30;99.90;;;;;;5037856;28;20288;-81
2023/01/18 12:33:17;;;;;;;1.05;1.05;;;8.10;99.90;;;;;;5054287;28;20253;-82
2023/01/18 12:39:26;;;;;;;0.85;0.60;;;7.80;99.90;;;;;;5036866;28;20286;-82
2023/01/18 12:42:09;;;;;;;1.05;0.80;;;7.80;99.90;;;;;;5054067;28;20214;-82
2023/01/18 12:45:01;;;;;;;5.80;1.45;;;7.80;99.90;;;;;;5054153;28;20273;-82
2023/01/18 12:47:55;;;;;;;2.17;1.30;;;7.80;99.90;;;;;;5053707;28;20212;-82
2023/01/18 12:50:36;;;;;;;1.75;1.60;;;7.80;99.90;;;;;;5053926;28;20231;-82
2023/01/18 12:56:26;;;;;;;1.00;1.00;;;7.70;99.90;;;;;;5053664;28;20204;-82
2023/01/18 12:59:27;;;;;;;2.00;1.20;;;7.70;99.90;;;;;;5053524;28;20217;-81
2023/01/18 13:02:12;;;;;;;1.15;1.13;;;7.90;99.90;;;;;;5053777;28;20197;-81
2023/01/18 13:04:46;;;;;;;0.80;0.80;;;8.60;99.90;;;;;;5053718;28;20263;-82
2023/01/18 13:10:28;;;;;;;5.32;4.78;;;10.10;99.90;;;;;;5053251;28;20252;-82
2023/01/18 13:13:30;;;;;;;;;;;;;;;;;;;;;
2023/01/18 13:16:22;;;;;;;2.25;1.70;;;11.90;99.90;;;;;;5053653;28;20252;-82
2023/01/18 13:19:16;;;;;;;1.15;1.05;;;12.20;99.90;;;;;;5053211;28;20348;-82
2023/01/18 13:22:21;;;;;;;1.55;1.40;;;12.20;99.90;;;;;;5052990;28;20218;-82
2023/01/18 13:25:14;;;;;;;3.83;1.83;;;11.80;98.60;;;;;;5053365;28;20233;-82
2023/01/18 13:27:57;;;;;;;6.05;2.33;;;11.30;97.40;;;;;;5052943;28;20267;-82
2023/01/18 13:30:27;;;;;;;1.83;1.63;;;11.00;99.80;;;;;;5053284;28;20202;-81
2023/01/18 13:32:56;;;;;;;0.70;0.70;;;11.10;99.90;;;;;;5053138;28;20234;-82
2023/01/18 13:35:32;;;;;;;0.73;0.73;;;11.50;98.60;;;;;;5057922;28;20222;-82
2023/01/18 13:38:06;;;;;;;1.80;1.20;;;11.80;98.80;;;;;;5052942;28;20293;-82
2023/01/18 13:40:43;;;;;;;0.68;0.68;;;12.20;99.40;;;;;;5052844;28;20288;-82
2023/01/18 13:43:33;;;;;;;0.82;0.82;;;12.40;97.40;;;;;;5052999;28;20225;-82
2023/01/18 13:46:08;;;;;;;0.47;0.47;;;12.40;97.40;;;;;;5053019;28;20212;-82
2023/01/18 13:48:46;;;;;;;0.57;0.57;;;12.30;97.40;;;;;;5052745;28;20225;-81
2023/01/18 13:55:32;;;;;;;0.60;0.60;;;11.70;99.80;;;;;;5010694;28;20305;-82
2023/01/18 14:10:06;;;;;;;0.57;0.57;;;10.40;99.90;;;;;;4952298;28;20952;-82
2023/01/18 14:16:05;;;;;;;1.50;1.40;;;9.80;99.90;;;;;;4991923;28;20206;-82
2023/01/18 14:18:37;;;;;;;1.58;1.40;;;9.60;99.90;;;;;;4993066;28;20211;-81
2023/01/18 14:22:06;;;;;;;1.95;1.85;;;9.50;99.90;;;;;;4993129;28;20204;-81
2023/01/18 14:25:34;;;;;;;3.70;1.85;;;9.30;99.90;;;;;;4992871;28;20314;-82
2023/01/18 14:28:24;;;;;;;1.67;1.48;;;9.10;99.90;;;;;;4992954;28;20212;-81
2023/01/18 14:42:10;;;;;;;1.67;1.58;;;8.40;99.90;;;;;;4992625;28;20203;-81
2023/01/18 14:44:44;;;;;;;2.97;1.40;;;8.30;99.90;;;;;;4992718;28;20275;-81
2023/01/18 14:47:33;;;;;;;1.40;1.30;;;8.10;99.90;;;;;;4992761;28;20211;-81
2023/01/18 15:09:12;;;;;;;1.60;1.05;;;7.60;99.90;;;;;;4935217;29;20272;-81
2023/01/18 15:12:32;;;;;;;1.25;1.15;;;7.50;99.90;;;;;;4950084;28;20211;-81
2023/01/18 15:23:04;;;;;;;2.42;1.63;;;7.40;99.90;;;;;;4939865;28;20206;-80
2023/01/18 16:03:10;;;;;;;;;;;;;;;;;;;;;
2023/01/18 16:06:18;;;;;;;6.60;3.85;;;6.60;99.90;;;;;;4920258;29;20208;-81
2023/01/18 16:09:07;;;;;;;5.65;4.15;;;6.60;99.90;;;;;;4954356;29;20205;-80
2023/01/18 16:11:52;;;;;;;3.63;2.70;;;6.50;99.90;;;;;;4954753;29;20210;-80
2023/01/18 16:14:32;;;;;;;3.53;2.67;;;6.50;99.90;;;;;;4954304;29;20220;-80
2023/01/18 16:17:06;;;;;;;3.90;3.03;;;6.40;99.90;;;;;;5012123;28;20208;-80
2023/01/18 16:19:42;;;;;;;4.30;2.80;;;6.40;99.90;;;;;;5032595;28;20273;-80
2023/01/18 16:22:27;;;;;;;2.78;2.25;;;6.30;99.90;;;;;;5032126;28;20265;-80
2023/01/18 16:25:00;;;;;;;4.30;2.75;;;6.30;99.90;;;;;;5032535;28;20294;-80
2023/01/18 16:27:32;;;;;;;3.53;2.47;;;6.20;99.90;;;;;;5031769;28;20211;-80
2023/01/18 16:30:04;;;;;;;7.20;3.38;;;6.20;99.90;;;;;;5032624;28;20268;-81
2023/01/18 16:32:37;;;;;;;1.95;1.75;;;6.20;99.90;;;;;;5048071;28;20282;-81
2023/01/18 16:35:13;;;;;;;2.03;1.83;;;6.20;99.90;;;;;;5094078;28;20212;-80
2023/01/18 16:37:44;;;;;;;1.90;1.70;;;6.10;99.90;;;;;;5094027;28;20218;-81
2023/01/18 16:40:17;;;;;;;2.40;2.20;;;6.10;99.90;;;;;;5094574;28;20207;-80
2023/01/18 16:43:03;;;;;;;5.05;2.70;;;6.10;99.90;;;;;;5093941;28;20231;-80
2023/01/18 16:45:39;;;;;;;2.80;2.60;;;6.10;99.90;;;;;;5094348;28;20197;-80
2023/01/18 16:48:17;;;;;;;3.08;2.63;;;6.10;99.90;;;;;;5093992;28;20338;-80
2023/01/18 16:50:50;;;;;;;4.28;3.38;;;6.10;99.90;;;;;;5094301;28;20212;-80
2023/01/18 16:53:24;;;;;;;2.78;2.58;;;6.10;99.90;;;;;;5093929;28;20236;-80
2023/01/18 17:03:05;;;;;;;3.85;2.83;;;6.00;99.90;;;;;;4947253;28;20278;-81
2023/01/18 17:05:34;;;;;;;12.75;3.88;;;6.00;99.90;;;;;;5093919;28;20204;-80
2023/01/18 17:08:03;;;;;;;3.17;2.92;;;6.00;99.90;;;;;;5093806;28;20260;-81
2023/01/18 17:10:41;;;;;;;6.97;4.13;;;6.00;99.90;;;;;;5094037;28;20262;-80
2023/01/18 17:13:11;;;;;;;4.25;3.25;;;5.90;99.90;;;;;;5093135;28;20235;-80
2023/01/18 17:15:42;;;;;;;4.28;3.47;;;5.90;99.90;;;;;;5093386;28;20327;-80
2023/01/18 17:18:16;;;;;;;4.85;3.10;;;5.80;99.90;;;;;;5093285;28;20283;-80
2023/01/18 17:20:49;;;;;;;3.15;2.83;;;5.80;99.90;;;;;;5094082;28;20276;-80
2023/01/18 17:23:19;;;;;;;4.72;2.75;;;5.80;99.90;;;;;;5093341;28;20255;-81
2023/01/18 17:25:54;;;;;;;3.53;3.22;;;5.70;99.90;;;;;;5093521;28;20283;-83
2023/01/18 17:28:27;;;;;;;3.47;2.97;;;5.70;99.90;;;;;;5093660;28;20208;-81
2023/01/18 17:30:59;;;;;;;17.05;4.25;;;5.70;99.90;;;;;;5093489;28;20204;-81
2023/01/18 17:33:49;;;;;;;5.82;3.65;;;5.80;99.90;;;;;;5120585;22;20231;-80
2023/01/18 17:40:30;;;;;;;6.18;4.22;;;5.90;99.90;;;;;;4953146;29;20197;-81
2023/01/18 17:43:13;;;;;;;3.72;2.80;;;5.90;99.90;;;;;;5062271;28;20309;-81
2023/01/18 17:45:49;;;;;;;3.58;2.45;;;5.90;99.90;;;;;;5113791;28;20307;-82
2023/01/18 17:48:28;;;;;;;2.88;2.67;;;5.90;99.90;;;;;;5113520;28;20211;-81
2023/01/18 17:50:57;;;;;;;6.55;5.00;;;5.90;99.90;;;;;;5113783;28;20215;-80
2023/01/18 17:53:32;;;;;;;5.88;5.03;;;5.90;99.90;;;;;;5113415;28;20223;-81
2023/01/18 17:56:00;;;;;;;6.90;5.70;;;5.90;99.90;;;;;;5113769;28;20332;-81
2023/01/18 17:58:30;;;;;;;7.47;5.88;;;5.90;99.90;;;;;;5113500;28;20210;-81
2023/01/18 18:01:04;;;;;;;9.05;4.93;;;5.80;99.90;;;;;;5113215;28;20207;-81
2023/01/18 18:03:33;;;;;;;10.70;8.35;;;5.80;99.90;;;;;;5113617;28;20230;-81
2023/01/18 18:06:01;;;;;;;8.80;6.03;;;5.80;99.90;;;;;;5113081;28;20207;-81
2023/01/18 18:08:29;;;;;;;9.43;6.88;;;5.80;99.90;;;;;;5113371;28;20199;-81
2023/01/18 18:10:59;;;;;;;14.45;6.32;;;5.80;99.90;;;;;;5113566;28;20230;-80
2023/01/18 18:13:34;;;;;;;12.25;7.45;;;5.80;99.90;;;;;;5113066;28;20215;-81
2023/01/18 18:16:04;;;;;;;7.53;6.70;;;5.70;99.90;;;;;;5113590;28;20223;-81
2023/01/18 18:18:32;;;;;;;5.95;5.30;;;5.80;99.90;;;;;;5112578;28;20261;-81
2023/01/18 18:21:02;;;;;;;13.10;6.85;;;5.70;99.90;;;;;;5113270;28;20250;-80
2023/01/18 18:23:31;;;;;;;7.65;6.43;;;5.70;99.90;;;;;;5112819;28;20228;-82
2023/01/18 18:26:00;;;;;;;7.43;5.35;;;5.60;99.90;;;;;;5112817;28;20196;-81
2023/01/18 18:28:29;;;;;;;6.25;5.10;;;5.60;99.90;;;;;;5113109;28;20211;-81
2023/01/18 18:31:00;;;;;;;6.38;5.35;;;5.60;99.90;;;;;;5112861;28;20204;-80